Terminal Aerodrome Forecast
Issued by NWS

Home | Current Version | Previous Version | Text Only | Print | Product List | Glossary On
Versions: 1 2 3 4 5 6 7 8 9 10 11 12 13
000
FTUS46 KSEW 052354
TAFPAE
TAF
KPAE 052354Z 0600/0624 15004KT P6SM -SHRASN BKN006 OVC012
      TEMPO 0600/0604 1SM -SHSN BR BKN003 OVC010
     FM060400 VRB03KT 3SM -SHSN BR BKN003 OVC010
     FM060900 04003KT 5SM BR OVC003
     FM061500 36005KT P6SM SCT015 BKN040
     FM061800 35005KT P6SM SCT050=

USA.gov is the U.S. government's official web portal to all federal, state and local government web resources and services.